Glendale, New York
Current Conditions -  °F | °C
As of 6:51 AM on Monday 22 Dec 2014 (Local Time) from KLGA Reporting Station
Overcast Overcast  
Wind Chill: 30°   Ceiling: 900
Heat Index: 36°   Visibility: 10mi
Dew Point: 32°   Wind: 8mph
Humidity: 86%   Direction: 40°NE
Pressure: 30.31"   Gusts: NA
Location:  40.7008°N, 73.8892°W
Report Text: KLGA 221151Z 04007KT 10SM OVC009 02/00 A3031 RMK AO2 SLP264 T00220000 10028 20017 58004
Loading
Personal Weather Stations






























Interactive Weather Map New forecast layout! Learn more

10-Day Weather Forecast

Advertisements
Track Severe Weather on mobile